createdAt,value
2023-03-02T02:41:15.089Z,2.13
2023-03-02T02:42:15.114Z,2.14
2023-03-02T02:43:15.140Z,2.11
2023-03-02T02:44:15.157Z,2.09
2023-03-02T02:45:15.191Z,2.11
2023-03-02T02:46:15.312Z,2.10
2023-03-02T02:47:15.239Z,2.08
2023-03-02T02:48:15.268Z,2.09
2023-03-02T02:49:15.291Z,2.09
2023-03-02T02:50:15.319Z,2.06
2023-03-02T02:51:15.349Z,2.09
2023-03-02T02:52:15.396Z,2.06
2023-03-02T02:53:15.406Z,2.10
2023-03-02T04:28:17.936Z,1.77
2023-03-02T04:29:17.717Z,1.74
2023-03-02T04:30:17.755Z,1.74
2023-03-02T04:31:17.841Z,1.74
2023-03-02T04:32:17.837Z,1.74
2023-03-02T04:33:17.819Z,1.73
2023-03-02T04:34:17.845Z,1.74
2023-03-02T04:35:17.979Z,1.75
2023-03-02T04:36:17.905Z,1.75
2023-03-02T04:37:17.927Z,1.71
2023-03-02T04:38:17.956Z,1.71
2023-03-02T04:39:17.993Z,1.75
2023-03-02T04:40:18.011Z,1.72
2023-03-02T04:41:18.047Z,1.74
2023-03-02T04:42:18.073Z,1.66
2023-03-02T04:43:18.094Z,1.70
2023-03-02T04:44:18.139Z,1.70
2023-03-02T04:45:18.161Z,1.69
2023-03-02T04:46:18.283Z,1.68
2023-03-02T04:47:18.200Z,1.68
2023-03-02T04:48:18.232Z,1.70
2023-03-02T04:49:18.445Z,1.70
2023-03-02T04:50:18.287Z,1.66
2023-03-02T04:51:18.311Z,1.67
2023-03-02T04:52:18.323Z,1.68
2023-03-02T04:59:18.486Z,1.68
2023-03-02T05:00:18.510Z,1.67
2023-03-02T05:01:18.604Z,1.65
2023-03-02T05:02:18.636Z,1.66
2023-03-02T05:03:18.581Z,1.72
2023-03-02T05:04:18.637Z,1.67
2023-03-02T05:05:18.616Z,1.66
2023-03-02T05:06:18.641Z,1.64
2023-03-02T05:07:18.662Z,1.64
2023-03-02T05:08:18.679Z,1.62
2023-03-02T05:09:18.694Z,1.64
2023-03-02T05:10:18.726Z,1.63
2023-03-02T05:11:18.745Z,1.63
2023-03-02T05:12:18.765Z,1.62
2023-03-02T05:13:18.790Z,1.64
2023-03-02T05:14:18.817Z,1.61
2023-03-02T05:15:18.846Z,1.61
2023-03-02T05:16:18.972Z,1.61
2023-03-02T05:17:18.912Z,1.57
2023-03-02T05:18:19.439Z,1.59
2023-03-02T05:19:19.935Z,1.60
2023-03-02T05:20:18.964Z,1.58
2023-03-02T05:21:18.997Z,1.56
2023-03-02T05:22:19.010Z,1.57
2023-03-02T05:23:19.093Z,1.58
2023-03-02T05:24:19.052Z,1.57
2023-03-02T05:25:19.082Z,1.60
2023-03-02T05:26:19.110Z,1.58
2023-03-02T05:27:19.129Z,1.56
2023-03-02T05:28:19.156Z,1.58
2023-03-02T05:29:19.190Z,1.56
2023-03-02T05:30:19.201Z,1.59
2023-03-02T05:31:19.308Z,1.57
2023-03-02T05:32:19.311Z,1.57
2023-03-02T05:33:19.358Z,1.57
2023-03-02T05:34:19.314Z,1.54
2023-03-02T05:35:19.365Z,1.56
2023-03-02T05:36:21.233Z,1.57
2023-03-02T05:37:19.367Z,1.56
2023-03-02T05:38:19.385Z,1.57
2023-03-02T05:39:19.429Z,1.57
2023-03-02T05:40:19.397Z,1.56
2023-03-02T05:41:19.399Z,1.57
2023-03-02T05:42:19.398Z,1.58
2023-03-02T05:43:19.414Z,1.56
2023-03-02T05:44:19.417Z,1.56
2023-03-02T05:45:19.419Z,1.55
2023-03-02T05:46:21.613Z,1.53
2023-03-02T05:47:19.558Z,1.53
2023-03-02T05:48:19.568Z,1.54
2023-03-02T05:49:19.576Z,1.54
2023-03-02T05:50:19.598Z,1.53
2023-03-02T05:51:19.615Z,1.55
2023-03-02T05:52:19.629Z,1.58
2023-03-02T05:53:19.668Z,1.54
2023-03-02T05:54:19.683Z,1.52
2023-03-02T05:55:19.717Z,1.56
2023-03-02T05:56:19.739Z,1.54
2023-03-02T05:57:19.764Z,1.53
2023-03-02T05:58:19.789Z,1.52
2023-03-02T05:59:19.807Z,1.57
2023-03-02T06:00:19.832Z,1.52
2023-03-02T06:01:19.862Z,1.55
2023-03-02T06:02:19.917Z,1.55
2023-03-02T06:03:19.942Z,1.53
2023-03-02T06:04:19.950Z,1.51
2023-03-02T06:05:19.979Z,1.51
2023-03-02T06:06:19.989Z,1.48
2023-03-02T06:07:20.034Z,1.50
2023-03-02T06:08:20.047Z,1.50
2023-03-02T06:09:20.079Z,1.52
2023-03-02T06:10:20.114Z,1.51
2023-03-02T06:11:20.145Z,1.53
2023-03-02T06:12:20.166Z,1.54
2023-03-02T06:13:20.185Z,1.53
2023-03-02T06:14:20.220Z,1.58
2023-03-02T06:15:20.246Z,1.53
2023-03-02T06:16:20.302Z,1.53
2023-03-02T06:17:20.292Z,1.54
2023-03-02T06:18:20.325Z,1.57
2023-03-02T06:19:20.343Z,1.62
2023-03-02T06:20:20.444Z,1.64
2023-03-02T06:21:20.381Z,1.69
2023-03-02T07:50:22.770Z,2.24
2023-03-02T07:51:22.877Z,2.30
2023-03-02T07:52:22.835Z,2.44
2023-03-02T07:53:22.864Z,2.58
2023-03-02T07:54:23.414Z,2.68
2023-03-02T07:55:23.007Z,2.53
2023-03-02T07:56:22.994Z,2.41
2023-03-02T07:57:23.029Z,2.35
2023-03-02T07:58:23.050Z,2.50
2023-03-02T07:59:23.093Z,2.62
2023-03-02T08:00:23.129Z,2.84
2023-03-02T08:01:24.022Z,2.87
2023-03-02T08:02:23.201Z,2.93
2023-03-02T08:03:23.235Z,2.96
2023-03-02T08:04:23.239Z,2.99
2023-03-02T08:05:23.274Z,2.96
2023-03-02T08:06:23.296Z,3.03
2023-03-02T08:07:23.330Z,3.01
2023-03-02T08:08:23.364Z,3.01
2023-03-02T08:09:23.374Z,2.89
2023-03-02T08:10:23.400Z,2.85
2023-03-02T08:11:23.500Z,2.79
2023-03-02T08:12:23.931Z,2.81
2023-03-02T08:13:23.482Z,2.82
2023-03-02T08:14:23.528Z,2.79
2023-03-02T08:15:23.536Z,2.84
2023-03-02T08:16:25.494Z,2.87
2023-03-02T08:17:23.599Z,2.89
2023-03-02T08:18:23.612Z,2.90
2023-03-02T08:19:23.660Z,3.01
2023-03-02T08:20:23.696Z,3.09
2023-03-02T08:21:23.741Z,3.21
2023-03-02T09:32:31.020Z,2.13
2023-03-02T10:13:25.157Z,1.94
2023-03-02T10:14:25.005Z,2.00
2023-03-02T10:15:24.831Z,2.07
2023-03-02T10:16:24.915Z,2.14
2023-03-02T10:17:26.317Z,2.21
2023-03-02T10:18:25.005Z,2.34
2023-03-02T10:19:24.891Z,2.46
2023-03-02T10:21:24.877Z,2.49
2023-03-02T10:22:24.889Z,2.58
2023-03-02T10:23:24.918Z,2.78
2023-03-02T10:24:24.880Z,2.96
2023-03-02T10:25:24.881Z,3.12
2023-03-02T10:27:24.926Z,3.44
2023-03-02T10:28:24.897Z,3.42
2023-03-02T10:29:24.905Z,3.43
2023-03-02T10:30:24.994Z,3.37
2023-03-02T10:31:25.104Z,3.47
2023-03-02T11:03:27.897Z,3.20
2023-03-02T11:06:27.928Z,3.15
2023-03-02T11:24:27.716Z,2.78
2023-03-02T11:25:27.783Z,2.73
2023-03-02T11:26:27.847Z,2.62
2023-03-02T11:27:27.947Z,2.55
2023-03-02T11:28:28.034Z,2.55
2023-03-02T11:29:28.051Z,2.56
2023-03-02T11:30:28.956Z,2.56
2023-03-02T11:31:28.251Z,2.58
2023-03-02T11:32:28.297Z,2.69
2023-03-02T11:33:28.288Z,2.70
2023-03-02T11:34:28.300Z,2.74
2023-03-02T11:35:28.418Z,2.66
2023-03-02T11:36:28.538Z,2.67
2023-03-02T11:37:28.475Z,2.77
2023-03-02T11:38:28.532Z,2.82
2023-03-02T11:39:28.601Z,2.87
2023-03-02T11:40:28.683Z,2.81
2023-03-02T11:41:28.699Z,2.93
2023-03-02T11:42:28.810Z,2.84
2023-03-02T11:43:28.807Z,2.88
2023-03-02T11:44:28.829Z,2.93
2023-03-02T11:45:28.935Z,2.98
2023-03-02T11:46:28.966Z,2.99
2023-03-02T11:47:29.264Z,2.99
2023-03-02T11:48:29.007Z,3.07
2023-03-02T11:49:29.170Z,3.13
2023-03-02T11:50:29.135Z,3.16
2023-03-02T11:51:29.181Z,3.19
2023-03-02T11:52:29.233Z,3.26
2023-03-02T11:53:29.280Z,3.37
2023-03-02T11:54:29.408Z,3.35
2023-03-02T14:11:37.708Z,7.70
2023-03-02T14:12:37.762Z,7.44
2023-03-02T14:13:37.817Z,7.54
2023-03-02T14:14:37.962Z,7.53
2023-03-02T14:15:38.045Z,7.27
2023-03-02T14:16:38.390Z,7.31
2023-03-02T14:17:38.066Z,7.28
2023-03-02T14:18:38.136Z,7.17
2023-03-02T14:19:38.193Z,7.22
2023-03-02T14:20:38.335Z,7.35
2023-03-02T14:21:38.354Z,7.25
2023-03-02T14:22:38.389Z,7.23
2023-03-02T14:23:38.522Z,7.30
2023-03-02T14:24:38.513Z,7.01
2023-03-02T14:25:38.579Z,7.00
2023-03-02T14:26:38.639Z,6.86
2023-03-02T14:27:38.708Z,6.94
2023-03-02T14:28:38.768Z,6.79
2023-03-02T14:29:38.907Z,6.93
2023-03-02T14:30:38.905Z,6.96
2023-03-02T14:31:38.979Z,6.86
2023-03-02T14:32:39.867Z,6.88
2023-03-02T14:33:39.124Z,6.84
2023-03-02T14:34:39.193Z,6.73
2023-03-02T14:35:39.282Z,6.90
2023-03-02T14:36:39.336Z,6.91
2023-03-02T14:37:39.501Z,7.09
2023-03-02T14:38:39.456Z,6.98
2023-03-02T14:39:39.553Z,6.89
2023-03-02T14:40:39.573Z,7.08
2023-03-02T14:41:52.480Z,7.19
2023-03-02T14:42:40.676Z,7.20
2023-03-02T14:43:39.625Z,7.23
2023-03-02T14:44:39.633Z,7.23
2023-03-02T14:45:39.625Z,7.35
2023-03-02T14:46:39.652Z,7.19
2023-03-02T14:47:39.624Z,6.84
2023-03-02T14:48:39.621Z,6.76
2023-03-02T14:49:39.634Z,6.68
2023-03-02T14:50:39.695Z,6.83
2023-03-02T14:51:39.745Z,6.91
2023-03-02T14:52:39.852Z,6.78
2023-03-02T14:53:39.886Z,6.96
2023-03-02T14:54:39.970Z,6.89
2023-03-02T14:55:40.099Z,6.98
2023-03-02T14:56:40.109Z,7.03
2023-03-02T14:57:40.911Z,7.04
2023-03-02T14:58:40.223Z,7.12
2023-03-02T14:59:40.293Z,6.80
2023-03-02T15:00:40.359Z,6.97
2023-03-02T15:01:40.470Z,7.03
2023-03-02T15:02:40.539Z,7.06
2023-03-02T15:03:40.597Z,7.13
2023-03-02T15:04:40.558Z,7.12
2023-03-02T15:05:42.142Z,6.47
2023-03-02T15:15:40.646Z,6.98
2023-03-02T23:27:47.824Z,0.76
2023-03-02T23:43:47.833Z,0.73
